Time;durP1;ratioP1;P1;durP2;ratioP2;P2;SDS_P1;SDS_P2;PMS_P1;PMS_P2;Temp;Humidity;BMP_temperature;BMP_pressure;BME280_temperature;BME280_humidity;BME280_pressure;Samples;Min_cycle;Max_cycle;Signal;HPM_P1;HPM_P2
2024/03/28 00:00:39;;;;;;;3.65;2.88;;;9.80;99.90;;;;;;4159443;28;20033;-66
2024/03/28 00:02:40;;;;;;;5.13;3.17;;;9.70;99.90;;;;;;4160170;28;20041;-66
2024/03/28 00:04:40;;;;;;;3.65;3.00;;;9.70;99.90;;;;;;4162326;28;20029;-66
2024/03/28 00:06:41;;;;;;;4.35;2.70;;;9.70;99.90;;;;;;4160998;28;20053;-66
2024/03/28 00:08:42;;;;;;;3.85;2.88;;;9.70;99.90;;;;;;4162431;28;20042;-66
2024/03/28 00:10:47;;;;;;;4.45;3.00;;;9.70;99.90;;;;;;4158994;28;20041;-66
2024/03/28 00:12:48;;;;;;;4.05;2.67;;;9.70;99.90;;;;;;4159406;28;20029;-66
2024/03/28 00:14:48;;;;;;;4.13;2.53;;;9.70;99.90;;;;;;4162377;28;20045;-66
2024/03/28 00:16:49;;;;;;;3.83;2.78;;;9.70;99.90;;;;;;4161578;28;20033;-66
2024/03/28 00:18:50;;;;;;;4.78;2.95;;;9.70;99.90;;;;;;4162219;28;20041;-66
2024/03/28 00:20:58;;;;;;;4.22;2.97;;;9.70;99.90;;;;;;4159370;28;20042;-66
2024/03/28 00:23:00;;;;;;;5.45;3.08;;;9.70;99.90;;;;;;4143726;28;20040;-66
2024/03/28 00:25:01;;;;;;;4.13;2.90;;;9.70;99.90;;;;;;4159767;28;20033;-65
2024/03/28 00:27:01;;;;;;;5.38;3.03;;;9.70;99.90;;;;;;4157315;28;20043;-66
2024/03/28 00:29:03;;;;;;;4.90;3.15;;;9.70;99.90;;;;;;4153554;28;20041;-65
2024/03/28 00:31:04;;;;;;;4.57;3.05;;;9.70;99.90;;;;;;4156181;28;20087;-66
2024/03/28 00:33:05;;;;;;;4.70;3.40;;;9.70;99.90;;;;;;4173033;28;20108;-66
2024/03/28 00:35:05;;;;;;;4.57;3.00;;;9.60;99.90;;;;;;4161838;28;20036;-68
2024/03/28 00:37:06;;;;;;;4.10;2.97;;;9.60;99.90;;;;;;4159522;28;20033;-66
2024/03/28 00:39:08;;;;;;;3.85;2.85;;;9.60;99.90;;;;;;4161820;28;20041;-66
2024/03/28 00:41:09;;;;;;;5.05;2.78;;;9.60;99.90;;;;;;4159390;28;20033;-66
2024/03/28 00:43:09;;;;;;;5.38;3.35;;;9.60;99.90;;;;;;4161926;28;20122;-66
2024/03/28 00:45:10;;;;;;;4.75;3.10;;;9.70;99.90;;;;;;4160474;28;20493;-64
2024/03/28 00:47:10;;;;;;;5.85;3.47;;;9.60;99.90;;;;;;4161317;28;20037;-63
2024/03/28 00:49:11;;;;;;;7.95;3.22;;;9.60;99.90;;;;;;4161658;28;20033;-63
2024/03/28 00:51:12;;;;;;;5.85;2.90;;;9.60;99.90;;;;;;4158936;28;20040;-63
2024/03/28 00:53:12;;;;;;;4.97;3.28;;;9.60;99.90;;;;;;4160443;28;20075;-63
2024/03/28 00:55:13;;;;;;;5.72;3.13;;;9.50;99.90;;;;;;4160543;28;20259;-63
2024/03/28 00:57:14;;;;;;;6.78;2.90;;;9.60;99.90;;;;;;4161716;28;20029;-63
2024/03/28 00:59:14;;;;;;;3.78;2.78;;;9.60;99.90;;;;;;4161344;28;20037;-63
2024/03/28 01:01:15;;;;;;;7.53;3.05;;;9.60;99.90;;;;;;4158655;28;20136;-63
2024/03/28 01:03:16;;;;;;;4.93;3.20;;;9.60;99.90;;;;;;4160980;28;20037;-63
2024/03/28 01:05:16;;;;;;;4.35;2.83;;;9.60;99.90;;;;;;4158874;28;20573;-63
2024/03/28 01:07:17;;;;;;;5.65;3.08;;;9.60;99.90;;;;;;4161313;28;20040;-63
2024/03/28 01:09:17;;;;;;;5.93;3.45;;;9.50;99.90;;;;;;4159542;28;20429;-63
2024/03/28 01:11:18;;;;;;;5.93;2.97;;;9.60;99.90;;;;;;4159961;28;20060;-63
2024/03/28 01:13:20;;;;;;;3.47;2.80;;;9.50;99.90;;;;;;4160640;28;20045;-63
2024/03/28 01:15:21;;;;;;;5.43;3.03;;;9.50;99.90;;;;;;4160667;28;20042;-63
2024/03/28 01:17:22;;;;;;;5.97;2.78;;;9.50;99.90;;;;;;4160989;28;20508;-63
2024/03/28 01:19:23;;;;;;;4.03;2.55;;;9.40;99.90;;;;;;4161091;28;20040;-63
2024/03/28 01:21:23;;;;;;;4.30;2.67;;;9.40;99.90;;;;;;4160990;28;20470;-63
2024/03/28 01:23:24;;;;;;;3.58;2.63;;;9.40;99.90;;;;;;4159244;28;20040;-63
2024/03/28 01:25:25;;;;;;;3.78;2.30;;;9.40;99.90;;;;;;4158800;28;20072;-65
2024/03/28 01:27:25;;;;;;;3.90;2.17;;;9.30;99.90;;;;;;4162440;28;20486;-64
2024/03/28 01:29:26;;;;;;;3.30;2.35;;;9.30;99.90;;;;;;4167078;28;20064;-64
2024/03/28 01:31:26;;;;;;;4.80;2.80;;;9.30;99.90;;;;;;4165715;28;20355;-63
2024/03/28 01:33:31;;;;;;;3.67;2.40;;;9.20;99.90;;;;;;4166357;28;20064;-62
2024/03/28 01:35:31;;;;;;;4.70;2.50;;;9.20;99.90;;;;;;4164645;28;20445;-63
2024/03/28 01:37:32;;;;;;;4.10;2.30;;;9.20;99.90;;;;;;4165641;28;20029;-64
2024/03/28 01:39:32;;;;;;;5.15;2.47;;;9.20;99.90;;;;;;4165258;28;20033;-64
2024/03/28 01:41:33;;;;;;;6.47;2.92;;;9.20;99.90;;;;;;4163043;28;20037;-64
2024/03/28 01:43:38;;;;;;;3.78;2.85;;;9.20;99.90;;;;;;4161194;28;20149;-64
2024/03/28 01:45:39;;;;;;;3.38;2.55;;;9.20;99.90;;;;;;4160310;28;20032;-63
2024/03/28 01:47:40;;;;;;;3.75;2.40;;;9.20;99.90;;;;;;4161912;28;20034;-63
2024/03/28 01:49:42;;;;;;;3.13;2.30;;;9.20;99.90;;;;;;4162175;28;20508;-63
2024/03/28 01:51:44;;;;;;;3.70;2.42;;;9.10;99.90;;;;;;4163520;28;20113;-63
2024/03/28 01:53:47;;;;;;;2.72;1.83;;;9.10;99.90;;;;;;4165325;28;20521;-58
2024/03/28 01:55:47;;;;;;;;;;;9.20;99.90;;;;;;4165478;28;20033;-58
2024/03/28 01:57:49;;;;;;;3.63;2.10;;;9.20;99.90;;;;;;4165368;28;19909;-58
2024/03/28 01:59:51;;;;;;;3.13;2.05;;;9.20;99.90;;;;;;4164492;28;20104;-58
2024/03/28 02:01:53;;;;;;;2.50;2.13;;;9.20;99.90;;;;;;4164839;28;20026;-58
2024/03/28 02:03:53;;;;;;;3.28;2.35;;;9.30;99.90;;;;;;4164418;28;20553;-58
2024/03/28 02:05:54;;;;;;;4.63;2.53;;;9.30;99.90;;;;;;4163970;28;20041;-58
2024/03/28 02:07:55;;;;;;;3.53;2.33;;;9.20;99.90;;;;;;4165379;28;20543;-59
2024/03/28 02:09:57;;;;;;;2.70;2.00;;;9.20;99.90;;;;;;4166076;28;20061;-58
2024/03/28 02:11:59;;;;;;;3.72;2.42;;;9.30;99.90;;;;;;4165829;28;20030;-58
2024/03/28 02:14:03;;;;;;;2.83;2.00;;;9.30;99.90;;;;;;4164856;28;20613;-59
2024/03/28 02:16:04;;;;;;;3.22;2.38;;;9.20;99.90;;;;;;4164555;28;20040;-59
2024/03/28 02:18:04;;;;;;;3.58;2.40;;;9.30;99.90;;;;;;4166226;28;20033;-58
2024/03/28 02:20:06;;;;;;;3.92;2.25;;;9.30;99.90;;;;;;4165812;28;20080;-60
2024/03/28 02:22:07;;;;;;;3.40;1.95;;;9.30;99.90;;;;;;4165971;28;20051;-58
2024/03/28 02:24:08;;;;;;;3.22;2.17;;;9.30;99.90;;;;;;4164699;28;20041;-58
2024/03/28 02:26:09;;;;;;;4.00;2.47;;;9.20;99.90;;;;;;4165764;28;20034;-58
2024/03/28 02:28:09;;;;;;;3.50;2.13;;;9.20;99.90;;;;;;4166106;28;20113;-58
2024/03/28 02:30:11;;;;;;;2.63;2.03;;;9.20;99.90;;;;;;4165434;28;20038;-61
2024/03/28 02:32:11;;;;;;;3.10;2.15;;;9.20;99.90;;;;;;4163487;28;20057;-58
2024/03/28 02:34:12;;;;;;;3.03;2.20;;;9.20;99.90;;;;;;4157582;28;20038;-58
2024/03/28 02:36:13;;;;;;;6.18;2.42;;;9.20;99.90;;;;;;4165348;28;20155;-58
2024/03/28 02:38:13;;;;;;;4.93;2.60;;;9.10;99.90;;;;;;4165957;28;20036;-58
2024/03/28 02:40:14;;;;;;;4.80;2.25;;;9.10;99.90;;;;;;4161788;28;20460;-59
2024/03/28 02:42:14;;;;;;;2.88;2.25;;;9.10;99.90;;;;;;4162974;28;20422;-58
2024/03/28 02:44:15;;;;;;;3.85;2.50;;;9.10;99.90;;;;;;4163609;28;20036;-59
2024/03/28 02:46:16;;;;;;;3.13;2.42;;;9.10;99.90;;;;;;4162917;28;20124;-58
2024/03/28 02:48:17;;;;;;;3.35;2.50;;;9.10;99.90;;;;;;4162795;28;20036;-58
2024/03/28 02:50:18;;;;;;;2.53;1.95;;;9.10;99.90;;;;;;4162861;28;20052;-58
2024/03/28 02:52:18;;;;;;;3.20;2.30;;;9.10;99.90;;;;;;4162964;28;20109;-58
2024/03/28 02:54:19;;;;;;;4.57;2.75;;;9.10;99.90;;;;;;4162367;28;20379;-58
2024/03/28 02:56:19;;;;;;;3.22;2.55;;;9.10;99.90;;;;;;4162042;28;20049;-58
2024/03/28 02:58:20;;;;;;;3.03;2.15;;;9.10;99.90;;;;;;4163124;28;20037;-58
2024/03/28 03:00:21;;;;;;;3.88;2.10;;;9.10;99.90;;;;;;4162687;28;20442;-59
2024/03/28 03:02:21;;;;;;;4.57;2.58;;;9.10;99.90;;;;;;4163041;28;20042;-58
2024/03/28 03:04:23;;;;;;;3.67;2.33;;;9.00;99.90;;;;;;4163524;28;20065;-63
2024/03/28 03:06:23;;;;;;;7.65;3.10;;;9.00;99.90;;;;;;4160045;28;20050;-63
2024/03/28 03:08:24;;;;;;;4.72;2.20;;;9.00;99.90;;;;;;4158912;28;20479;-63
2024/03/28 03:10:25;;;;;;;3.13;2.30;;;9.00;99.90;;;;;;4162452;28;20091;-63
2024/03/28 03:12:25;;;;;;;3.00;2.15;;;9.00;99.90;;;;;;4163521;28;20029;-63
2024/03/28 03:14:26;;;;;;;4.15;2.53;;;9.00;99.90;;;;;;4161623;28;20029;-63
2024/03/28 03:16:26;;;;;;;3.72;2.75;;;9.00;99.90;;;;;;4160145;28;20434;-64
2024/03/28 03:18:28;;;;;;;2.83;2.25;;;9.00;99.90;;;;;;4162977;28;20041;-63
2024/03/28 03:20:28;;;;;;;4.70;2.83;;;9.00;99.90;;;;;;4162721;28;20029;-63
2024/03/28 03:22:29;;;;;;;6.63;2.72;;;8.90;99.90;;;;;;4162725;28;20040;-64
2024/03/28 03:24:34;;;;;;;3.72;2.92;;;8.90;99.90;;;;;;4160333;28;20042;-63
2024/03/28 03:26:35;;;;;;;3.25;2.50;;;8.90;99.90;;;;;;4157723;28;20497;-63
2024/03/28 03:35:34;;;;;;;3.40;2.55;;;8.70;99.90;;;;;;4160485;28;20041;-63
2024/03/28 03:37:35;;;;;;;3.95;2.72;;;8.70;99.90;;;;;;4161858;28;20112;-64
2024/03/28 03:39:37;;;;;;;3.28;2.40;;;8.70;99.90;;;;;;4162417;28;20037;-63
2024/03/28 03:41:37;;;;;;;4.28;2.70;;;8.80;99.90;;;;;;4161497;28;20393;-64
2024/03/28 03:43:38;;;;;;;4.82;2.97;;;8.70;99.90;;;;;;4162690;28;20042;-63
2024/03/28 03:45:39;;;;;;;4.07;2.90;;;8.80;99.90;;;;;;4161996;28;20113;-63
2024/03/28 03:47:40;;;;;;;4.78;2.70;;;8.70;99.90;;;;;;4162553;28;20091;-63
2024/03/28 03:49:44;;;;;;;4.65;2.75;;;8.70;99.90;;;;;;4162316;28;20105;-63
2024/03/28 03:51:45;;;;;;;3.60;2.70;;;8.70;99.90;;;;;;4161037;28;20068;-63
2024/03/28 03:53:46;;;;;;;5.05;3.10;;;8.70;99.90;;;;;;4162413;28;20041;-63
2024/03/28 03:55:54;;;;;;;4.15;2.75;;;8.60;99.90;;;;;;4161206;28;20033;-63
2024/03/28 03:57:54;;;;;;;5.53;2.90;;;8.70;99.90;;;;;;4162216;28;20042;-63
2024/03/28 03:59:55;;;;;;;3.08;2.42;;;8.70;99.90;;;;;;4161776;28;20029;-63
2024/03/28 04:01:55;;;;;;;3.38;3.00;;;8.60;99.90;;;;;;4161489;28;20120;-63
2024/03/28 04:03:56;;;;;;;3.53;2.35;;;8.60;99.90;;;;;;4162486;28;20461;-63
2024/03/28 04:06:00;;;;;;;4.53;2.70;;;8.70;99.90;;;;;;4161203;28;20041;-63
2024/03/28 04:08:01;;;;;;;5.28;2.78;;;8.60;99.90;;;;;;4158944;28;20120;-63
2024/03/28 04:10:02;;;;;;;3.17;2.70;;;8.60;99.90;;;;;;4162338;28;20048;-63
2024/03/28 04:12:02;;;;;;;5.63;2.88;;;8.60;99.90;;;;;;4162064;28;20450;-63
2024/03/28 04:14:03;;;;;;;5.07;2.60;;;8.60;99.90;;;;;;4154486;28;20152;-66
2024/03/28 04:16:04;;;;;;;3.67;2.67;;;8.60;99.90;;;;;;4160728;28;20060;-65
2024/03/28 04:18:05;;;;;;;4.45;2.83;;;8.60;99.90;;;;;;4161615;28;20045;-66
2024/03/28 04:20:11;;;;;;;4.88;2.53;;;8.60;99.90;;;;;;4161824;28;20037;-67
2024/03/28 04:22:11;;;;;;;4.90;2.33;;;8.60;99.90;;;;;;4162025;28;20041;-66
2024/03/28 04:24:12;;;;;;;3.17;2.47;;;8.60;99.90;;;;;;4161389;28;20485;-66
2024/03/28 04:26:12;;;;;;;4.93;2.47;;;8.60;99.90;;;;;;4160927;28;20037;-66
2024/03/28 04:28:14;;;;;;;3.35;2.03;;;8.60;99.90;;;;;;4161871;28;20029;-66
2024/03/28 04:30:14;;;;;;;4.20;2.30;;;8.60;99.90;;;;;;4161299;28;20661;-66
2024/03/28 04:32:15;;;;;;;4.07;2.70;;;8.60;99.90;;;;;;4162073;28;20025;-66
2024/03/28 04:34:16;;;;;;;3.25;2.15;;;8.60;99.90;;;;;;4143307;28;20554;-66
2024/03/28 04:36:16;;;;;;;4.43;2.63;;;8.60;99.90;;;;;;4158820;28;20037;-65
2024/03/28 04:38:18;;;;;;;3.75;2.55;;;8.50;99.90;;;;;;4161437;28;20045;-66
2024/03/28 04:40:19;;;;;;;5.67;3.00;;;8.50;99.90;;;;;;4161528;28;20175;-66
2024/03/28 04:42:19;;;;;;;3.85;2.47;;;8.50;99.90;;;;;;4161630;28;20470;-66
2024/03/28 04:44:20;;;;;;;3.75;2.72;;;8.40;99.90;;;;;;4161841;28;20038;-66
2024/03/28 04:46:21;;;;;;;3.10;2.80;;;8.50;99.90;;;;;;4159206;28;20037;-65
2024/03/28 04:48:22;;;;;;;3.80;2.70;;;8.50;99.90;;;;;;4161943;28;20076;-66
2024/03/28 04:50:23;;;;;;;4.10;3.00;;;8.50;99.90;;;;;;4161242;28;20056;-66
2024/03/28 04:52:23;;;;;;;4.15;3.10;;;8.50;99.90;;;;;;4157520;28;20069;-66
2024/03/28 04:54:24;;;;;;;3.20;2.35;;;8.40;99.90;;;;;;4161769;28;20563;-66
2024/03/28 04:56:25;;;;;;;4.55;3.03;;;8.50;99.90;;;;;;4142900;28;20449;-66
2024/03/28 04:58:26;;;;;;;3.47;2.60;;;8.40;99.90;;;;;;4160072;28;20104;-68
2024/03/28 05:00:27;;;;;;;4.85;3.00;;;8.40;99.90;;;;;;4159643;28;20107;-59
2024/03/28 05:02:27;;;;;;;6.13;2.95;;;8.50;99.90;;;;;;4155709;28;20041;-60
2024/03/28 05:04:28;;;;;;;3.63;2.70;;;8.40;99.90;;;;;;4156568;28;20407;-59
2024/03/28 05:06:29;;;;;;;3.63;2.67;;;8.50;99.90;;;;;;4154221;28;20041;-59
2024/03/28 05:08:30;;;;;;;4.20;2.97;;;8.40;99.90;;;;;;4156381;28;20124;-59
2024/03/28 05:10:31;;;;;;;6.47;2.97;;;8.40;99.90;;;;;;4155339;28;20038;-58
2024/03/28 05:12:33;;;;;;;4.22;2.80;;;8.40;99.90;;;;;;4156124;28;20091;-58
2024/03/28 05:14:33;;;;;;;3.15;2.47;;;8.30;99.90;;;;;;4155987;28;20038;-58
2024/03/28 05:16:34;;;;;;;6.15;3.08;;;8.30;99.90;;;;;;4154127;28;20467;-58
2024/03/28 05:18:35;;;;;;;4.28;2.90;;;8.30;99.90;;;;;;4157082;28;20053;-61
2024/03/28 05:20:35;;;;;;;6.03;3.22;;;8.30;99.90;;;;;;4157603;28;20033;-60
2024/03/28 05:22:36;;;;;;;5.30;3.10;;;8.20;99.90;;;;;;4155156;28;20112;-59
2024/03/28 05:24:37;;;;;;;7.55;3.60;;;8.20;99.90;;;;;;4154229;28;20351;-67
2024/03/28 05:26:37;;;;;;;3.08;2.45;;;8.20;99.90;;;;;;4155438;28;20040;-67
2024/03/28 05:28:38;;;;;;;5.20;3.22;;;8.20;99.90;;;;;;4158170;28;20124;-67
2024/03/28 05:30:38;;;;;;;4.45;3.15;;;8.20;99.90;;;;;;4159513;28;20042;-67
2024/03/28 05:32:39;;;;;;;4.15;2.55;;;8.20;99.90;;;;;;4160784;28;20064;-66
2024/03/28 05:34:41;;;;;;;6.35;2.78;;;8.20;99.90;;;;;;4159278;28;20076;-67
2024/03/28 05:36:42;;;;;;;4.53;2.67;;;8.20;99.90;;;;;;4156541;28;20037;-66
2024/03/28 05:38:43;;;;;;;5.15;2.97;;;8.30;99.90;;;;;;4159096;28;20042;-66
2024/03/28 05:40:44;;;;;;;5.05;3.17;;;8.30;99.90;;;;;;4182739;28;20140;-59
2024/03/28 05:42:45;;;;;;;4.65;3.30;;;8.30;99.90;;;;;;4155617;28;20037;-66
2024/03/28 05:44:45;;;;;;;4.90;2.58;;;8.30;99.90;;;;;;4160276;28;20044;-66
2024/03/28 05:46:46;;;;;;;3.30;2.90;;;8.30;99.90;;;;;;4157279;28;20045;-65
2024/03/28 05:48:46;;;;;;;5.03;3.17;;;8.30;99.90;;;;;;4157434;28;20034;-66
2024/03/28 05:50:47;;;;;;;3.75;2.88;;;8.30;99.90;;;;;;4156021;28;20044;-67
2024/03/28 05:52:48;;;;;;;4.03;2.80;;;8.30;99.90;;;;;;4154374;28;20332;-63
2024/03/28 05:54:48;;;;;;;5.85;3.30;;;8.30;99.90;;;;;;4160492;28;20164;-63
2024/03/28 05:56:50;;;;;;;4.32;3.05;;;8.30;99.90;;;;;;4158294;28;20044;-58
2024/03/28 05:58:51;;;;;;;5.93;3.33;;;8.30;99.90;;;;;;4160355;28;20584;-62
2024/03/28 06:00:51;;;;;;;4.80;3.55;;;8.40;99.90;;;;;;4156873;28;20029;-66
2024/03/28 06:02:52;;;;;;;7.32;3.38;;;8.40;99.90;;;;;;4158439;28;20394;-63
2024/03/28 06:04:52;;;;;;;4.63;3.65;;;8.40;99.90;;;;;;4160227;28;20061;-66
2024/03/28 06:06:53;;;;;;;4.78;2.97;;;8.30;99.90;;;;;;4156754;28;20091;-63
2024/03/28 06:08:54;;;;;;;5.68;3.30;;;8.40;99.90;;;;;;4159900;28;20029;-63
2024/03/28 06:10:54;;;;;;;6.63;3.50;;;8.40;99.90;;;;;;4156483;28;20529;-63
2024/03/28 06:12:55;;;;;;;4.90;3.40;;;8.40;99.90;;;;;;4154438;28;20057;-63
2024/03/28 06:14:56;;;;;;;5.22;3.50;;;8.40;99.90;;;;;;4161693;28;20390;-67
2024/03/28 06:16:56;;;;;;;4.75;3.25;;;8.40;99.90;;;;;;4158435;28;20060;-63
2024/03/28 06:18:57;;;;;;;7.15;4.13;;;8.50;99.90;;;;;;4160234;28;20036;-57
2024/03/28 06:21:02;;;;;;;6.93;4.53;;;8.40;99.90;;;;;;4163116;28;20037;-69
2024/03/28 06:23:03;;;;;;;4.72;3.40;;;8.50;99.90;;;;;;4160957;28;20071;-61
2024/03/28 06:25:05;;;;;;;5.10;3.35;;;9.00;99.90;;;;;;4162471;28;20034;-70
2024/03/28 06:27:06;;;;;;;6.60;3.30;;;9.40;99.90;;;;;;4156867;28;20038;-62
2024/03/28 06:29:06;;;;;;;4.15;3.17;;;9.80;99.90;;;;;;4156976;28;20112;-64
2024/03/28 06:31:07;;;;;;;4.70;3.67;;;10.00;99.90;;;;;;4158439;28;20033;-73
2024/03/28 06:33:08;;;;;;;4.72;3.03;;;10.20;99.90;;;;;;4153592;28;20036;-64
2024/03/28 06:35:08;;;;;;;5.28;3.10;;;10.40;99.90;;;;;;4145033;28;20413;-58
2024/03/28 06:37:09;;;;;;;4.88;3.28;;;10.50;99.90;;;;;;4190046;28;20036;-69
2024/03/28 06:39:10;;;;;;;3.97;3.40;;;10.80;99.90;;;;;;4165762;28;20038;-62
2024/03/28 06:41:11;;;;;;;7.70;3.38;;;10.90;99.90;;;;;;4162275;28;20124;-57
2024/03/28 06:43:14;;;;;;;4.25;3.17;;;10.90;99.90;;;;;;4162728;28;20367;-57
2024/03/28 06:45:14;;;;;;;;;;;11.00;99.90;;;;;;4154776;28;20510;-69
2024/03/28 06:47:16;;;;;;;3.92;3.22;;;11.20;99.90;;;;;;4160875;28;19958;-69
2024/03/28 06:49:16;;;;;;;4.95;3.25;;;11.50;99.90;;;;;;4136208;28;20041;-69
2024/03/28 06:51:17;;;;;;;5.78;3.20;;;11.70;99.90;;;;;;4144938;28;20585;-69
2024/03/28 06:53:18;;;;;;;4.28;3.15;;;11.90;99.90;;;;;;4145588;28;20038;-69
2024/03/28 06:55:19;;;;;;;4.50;2.67;;;12.20;99.90;;;;;;4154736;28;20021;-69
2024/03/28 06:57:19;;;;;;;4.68;3.08;;;12.30;99.90;;;;;;4156481;28;20048;-69
2024/03/28 06:59:20;;;;;;;6.28;3.25;;;12.10;99.90;;;;;;4161753;28;20065;-69
2024/03/28 07:01:21;;;;;;;3.00;2.70;;;11.90;99.90;;;;;;4162069;28;20087;-69
2024/03/28 07:03:21;;;;;;;4.25;3.17;;;11.80;99.90;;;;;;4158495;28;20072;-69
2024/03/28 07:05:22;;;;;;;3.70;2.90;;;11.60;99.90;;;;;;4159761;28;20175;-69
2024/03/28 07:07:26;;;;;;;3.95;2.75;;;11.50;99.90;;;;;;4160959;28;20049;-69
2024/03/28 07:09:26;;;;;;;3.05;2.58;;;11.40;99.90;;;;;;4161038;28;20453;-69
2024/03/28 07:11:27;;;;;;;4.38;2.53;;;11.30;99.90;;;;;;4161426;28;20095;-69
2024/03/28 07:13:28;;;;;;;4.00;2.50;;;11.30;99.90;;;;;;4161357;28;20075;-69
2024/03/28 07:15:28;;;;;;;4.10;2.53;;;11.10;99.90;;;;;;4159118;28;20437;-69
2024/03/28 07:17:33;;;;;;;3.72;2.30;;;11.20;99.90;;;;;;4162384;28;20048;-69
2024/03/28 07:19:33;;;;;;;3.00;2.10;;;11.10;99.90;;;;;;4158292;28;20068;-69
2024/03/28 07:21:34;;;;;;;3.58;2.47;;;10.90;99.90;;;;;;4154175;28;20469;-68
2024/03/28 07:23:34;;;;;;;3.40;2.33;;;10.80;99.90;;;;;;4159022;28;20041;-69
2024/03/28 07:25:35;;;;;;;3.20;2.20;;;10.80;99.90;;;;;;4157303;28;20033;-68
2024/03/28 07:27:36;;;;;;;2.70;2.08;;;10.60;99.90;;;;;;4157200;28;20429;-67
2024/03/28 07:29:36;;;;;;;2.90;2.28;;;10.60;99.90;;;;;;4159929;28;20056;-66
2024/03/28 07:31:37;;;;;;;2.95;2.38;;;10.60;99.90;;;;;;4153976;28;20088;-68
2024/03/28 07:33:38;;;;;;;3.30;2.03;;;10.50;99.90;;;;;;4159006;28;20505;-67
2024/03/28 07:35:39;;;;;;;2.63;1.83;;;10.40;99.90;;;;;;4155417;28;20502;-68
2024/03/28 07:37:39;;;;;;;3.28;2.30;;;10.40;99.90;;;;;;4156383;28;20039;-69
2024/03/28 07:39:40;;;;;;;2.78;1.90;;;10.40;99.90;;;;;;4158628;28;20649;-68
2024/03/28 07:41:41;;;;;;;1.88;1.60;;;10.40;99.90;;;;;;4157788;28;20045;-69
2024/03/28 07:43:42;;;;;;;3.13;2.30;;;10.30;99.90;;;;;;4159000;28;20049;-63
2024/03/28 07:45:43;;;;;;;5.95;2.08;;;10.30;99.90;;;;;;4156632;28;20053;-63
2024/03/28 07:47:45;;;;;;;3.40;1.80;;;10.30;99.90;;;;;;4157210;28;20529;-64
2024/03/28 07:49:46;;;;;;;2.50;1.70;;;10.30;99.90;;;;;;4160216;28;20030;-64
2024/03/28 07:51:47;;;;;;;3.97;2.35;;;10.30;99.90;;;;;;4157026;28;20084;-63
2024/03/28 07:53:47;;;;;;;2.03;1.42;;;10.20;99.90;;;;;;4161665;28;20046;-64
2024/03/28 07:55:48;;;;;;;2.88;1.88;;;10.20;99.90;;;;;;4156176;28;20032;-63
2024/03/28 07:57:51;;;;;;;3.75;2.30;;;10.20;99.90;;;;;;4158540;28;20037;-63
2024/03/28 07:59:51;;;;;;;3.67;2.20;;;10.20;99.90;;;;;;4156673;28;20041;-63
2024/03/28 08:01:52;;;;;;;3.15;1.98;;;10.10;99.90;;;;;;4155800;28;20040;-64
2024/03/28 08:03:53;;;;;;;2.80;2.20;;;10.10;99.90;;;;;;4161723;28;20022;-63
2024/03/28 08:05:53;;;;;;;2.25;1.80;;;10.00;99.90;;;;;;4154492;28;20068;-63
2024/03/28 08:07:54;;;;;;;4.03;2.00;;;10.00;99.90;;;;;;4156474;28;20458;-63
2024/03/28 08:09:55;;;;;;;2.35;1.50;;;10.00;99.90;;;;;;4187106;28;20021;-63
2024/03/28 08:11:55;;;;;;;3.47;1.60;;;10.00;99.90;;;;;;4143440;28;20071;-63
2024/03/28 08:13:56;;;;;;;3.20;2.10;;;9.90;99.90;;;;;;4156252;28;20029;-63
2024/03/28 08:15:56;;;;;;;3.42;1.77;;;9.90;99.90;;;;;;4159295;28;21540;-64
2024/03/28 08:17:58;;;;;;;2.35;1.85;;;9.90;99.90;;;;;;4156204;28;20441;-64
2024/03/28 08:20:00;;;;;;;3.67;1.90;;;9.90;99.90;;;;;;4161055;28;20600;-63
2024/03/28 08:22:01;;;;;;;4.53;1.92;;;9.80;99.90;;;;;;4155133;28;20037;-64
2024/03/28 08:24:02;;;;;;;4.43;2.08;;;9.80;99.90;;;;;;4152234;28;20034;-64
2024/03/28 08:26:05;;;;;;;5.55;1.83;;;9.70;99.90;;;;;;4158685;28;20037;-64
2024/03/28 08:28:10;;;;;;;5.57;2.13;;;9.70;99.90;;;;;;4159435;28;20144;-64
2024/03/28 08:30:11;;;;;;;7.20;2.20;;;9.70;99.90;;;;;;4154265;28;20047;-64
2024/03/28 08:32:12;;;;;;;7.65;2.30;;;9.60;99.90;;;;;;4158593;28;20098;-65
2024/03/28 08:34:12;;;;;;;6.03;2.05;;;9.50;99.90;;;;;;4157374;28;20033;-64
2024/03/28 08:36:14;;;;;;;3.38;2.08;;;9.50;99.90;;;;;;4155266;28;20049;-64
2024/03/28 08:38:15;;;;;;;6.33;2.67;;;9.40;99.90;;;;;;4158083;28;20072;-63
2024/03/28 08:40:16;;;;;;;4.18;2.03;;;9.50;99.90;;;;;;4156590;28;20037;-64
2024/03/28 08:42:17;;;;;;;2.88;2.00;;;9.40;99.90;;;;;;4156564;28;20061;-64
2024/03/28 08:44:19;;;;;;;5.15;2.50;;;9.40;99.90;;;;;;4175652;28;20036;-64
2024/03/28 08:46:20;;;;;;;2.25;1.90;;;9.40;99.90;;;;;;4154831;28;20037;-64
2024/03/28 08:48:21;;;;;;;2.92;2.00;;;9.40;99.90;;;;;;4160159;28;20390;-63
2024/03/28 08:50:21;;;;;;;2.85;1.90;;;9.30;99.90;;;;;;4157057;28;20057;-64
2024/03/28 08:52:22;;;;;;;2.92;2.13;;;9.30;99.90;;;;;;4156395;28;20053;-64
2024/03/28 08:54:24;;;;;;;3.90;2.15;;;9.20;99.90;;;;;;4157012;28;20456;-63
2024/03/28 08:56:24;;;;;;;3.55;1.77;;;9.20;99.90;;;;;;4172907;28;20036;-63
2024/03/28 08:58:25;;;;;;;3.08;2.40;;;9.30;99.90;;;;;;4161137;28;20038;-63
2024/03/28 09:00:25;;;;;;;3.47;1.95;;;9.30;99.90;;;;;;4155467;28;20449;-63
2024/03/28 09:02:26;;;;;;;2.65;1.73;;;9.20;99.90;;;;;;4159664;28;20049;-63
2024/03/28 09:04:29;;;;;;;4.22;2.20;;;9.20;99.90;;;;;;4160018;28;20493;-63
2024/03/28 09:06:30;;;;;;;3.00;2.25;;;9.10;99.90;;;;;;4155178;28;20156;-63
2024/03/28 09:08:31;;;;;;;3.38;2.03;;;9.10;99.90;;;;;;4155432;28;20037;-63
2024/03/28 09:10:31;;;;;;;4.80;2.47;;;9.00;99.90;;;;;;4158772;28;20029;-63
2024/03/28 09:12:36;;;;;;;4.03;2.70;;;9.10;99.90;;;;;;4158413;28;20033;-63
2024/03/28 09:14:42;;;;;;;4.65;2.30;;;9.00;99.90;;;;;;4157720;28;20151;-65
2024/03/28 09:16:43;;;;;;;9.75;6.10;;;9.00;99.90;;;;;;4154547;28;20521;-66
2024/03/28 09:18:43;;;;;;;5.90;3.90;;;9.00;99.90;;;;;;4156763;28;20049;-65
2024/03/28 09:20:45;;;;;;;6.35;3.17;;;9.00;99.90;;;;;;4156793;28;20037;-66
2024/03/28 09:22:46;;;;;;;3.95;2.67;;;8.90;99.90;;;;;;4148328;28;20057;-65
2024/03/28 09:24:47;;;;;;;4.05;2.70;;;8.90;99.90;;;;;;4153843;28;20046;-65
2024/03/28 09:26:48;;;;;;;4.30;2.60;;;8.90;99.90;;;;;;4157183;28;20505;-64
2024/03/28 09:28:53;;;;;;;4.10;2.75;;;8.90;99.90;;;;;;4153525;28;20063;-65
2024/03/28 09:30:54;;;;;;;3.60;2.00;;;8.80;99.90;;;;;;4159076;28;20405;-65
2024/03/28 09:32:55;;;;;;;3.80;2.40;;;8.80;99.90;;;;;;4156824;28;20109;-65
2024/03/28 09:34:55;;;;;;;5.30;2.58;;;8.80;99.90;;;;;;4156143;28;20379;-66
2024/03/28 09:36:56;;;;;;;4.68;2.97;;;8.80;99.90;;;;;;4155560;28;20048;-65
2024/03/28 09:38:56;;;;;;;4.53;2.92;;;8.90;99.90;;;;;;4156976;28;20032;-59
2024/03/28 09:41:00;;;;;;;3.08;2.08;;;8.90;99.90;;;;;;4155086;28;20124;-70
2024/03/28 09:43:01;;;;;;;10.25;2.47;;;8.90;99.90;;;;;;4158973;28;20037;-70
2024/03/28 09:45:04;;;;;;;4.03;2.35;;;9.00;99.90;;;;;;4154252;28;20589;-74
2024/03/28 09:47:07;;;;;;;3.13;2.35;;;9.00;99.90;;;;;;4154685;28;20394;-65
2024/03/28 09:49:08;;;;;;;3.92;2.42;;;9.00;99.90;;;;;;4159184;28;20482;-67
2024/03/28 09:51:13;;;;;;;4.57;2.35;;;9.00;99.90;;;;;;4157124;28;20037;-66
2024/03/28 09:53:15;;;;;;;3.15;2.00;;;9.10;99.90;;;;;;4161517;28;20029;-66
2024/03/28 09:55:17;;;;;;;3.70;2.38;;;9.10;99.90;;;;;;4159500;28;20041;-67
2024/03/28 09:57:17;;;;;;;3.30;1.75;;;9.10;99.90;;;;;;4160079;28;20434;-68
2024/03/28 09:59:18;;;;;;;3.38;1.92;;;9.10;99.90;;;;;;4160751;28;20033;-68
2024/03/28 10:01:19;;;;;;;4.25;1.65;;;9.20;99.90;;;;;;4159347;28;20095;-67
2024/03/28 10:03:25;;;;;;;5.93;2.10;;;9.20;99.90;;;;;;4163136;28;20091;-68
2024/03/28 10:05:26;;;;;;;5.20;1.90;;;9.20;99.90;;;;;;4156766;28;20122;-64
2024/03/28 10:07:27;;;;;;;3.10;1.63;;;9.30;99.90;;;;;;4153826;28;20029;-64
2024/03/28 10:09:29;;;;;;;3.85;1.98;;;9.30;99.90;;;;;;4158838;28;20029;-65
2024/03/28 10:11:29;;;;;;;2.07;1.77;;;9.30;99.90;;;;;;4157072;28;20486;-65
2024/03/28 10:13:31;;;;;;;6.60;2.10;;;9.30;99.90;;;;;;4158775;28;20304;-65
2024/03/28 10:15:33;;;;;;;3.75;1.83;;;9.30;99.90;;;;;;4160177;28;20335;-65
2024/03/28 10:17:35;;;;;;;4.43;2.03;;;9.30;99.90;;;;;;4154901;28;20340;-65
2024/03/28 10:19:39;;;;;;;2.35;1.55;;;9.30;99.90;;;;;;4162602;28;20025;-65
2024/03/28 10:21:40;;;;;;;2.20;1.17;;;9.40;99.90;;;;;;4158659;28;20071;-65
2024/03/28 10:23:42;;;;;;;3.03;1.10;;;9.40;99.90;;;;;;4157983;28;20049;-64
2024/03/28 10:25:44;;;;;;;1.13;1.00;;;9.50;99.90;;;;;;4161462;28;20033;-65
2024/03/28 10:27:45;;;;;;;3.08;1.27;;;9.50;99.90;;;;;;4161369;28;20049;-65
2024/03/28 10:29:56;;;;;;;2.03;0.95;;;9.50;99.90;;;;;;4160425;28;20087;-65
2024/03/28 10:32:04;;;;;;;1.95;0.85;;;9.50;99.90;;;;;;4161175;28;20445;-65
2024/03/28 10:34:13;;;;;;;1.27;0.80;;;9.50;99.90;;;;;;4160684;28;20464;-65
2024/03/28 10:36:27;;;;;;;1.27;0.77;;;9.60;99.90;;;;;;4157408;28;20046;-65
2024/03/28 10:38:28;;;;;;;1.63;0.80;;;9.60;99.90;;;;;;4162465;28;20045;-65
2024/03/28 10:40:28;;;;;;;0.75;0.52;;;9.60;99.90;;;;;;4160407;28;20040;-65
2024/03/28 10:42:29;;;;;;;0.45;0.43;;;9.70;99.90;;;;;;4160738;28;20033;-65
2024/03/28 10:44:32;;;;;;;1.15;0.70;;;9.60;99.90;;;;;;4158582;28;20141;-64